Time,TemperatureF,DewpointF,PressureIn,WindDirection,WindDirectionDegrees,WindSpeedMPH,WindSpeedGustMPH,Humidity,HourlyPrecipIn,Conditions,Clouds,dailyrainin,SoftwareType,DateUTC
2013-03-08 00:02:00,41.0,-99.9,30.14,NNW,334,8.0,12.0,-999,-99.99,,,-99.99,,2013-03-08 05:02:00,
2013-03-08 00:12:00,41.0,-99.9,30.14,NW,319,10.0,14.0,-999,-99.99,,,-99.99,,2013-03-08 05:12:00,
2013-03-08 00:22:00,41.0,-99.9,30.14,North,-999,-999.0,-999.0,-999,-99.99,,,-99.99,,2013-03-08 05:22:00,
2013-03-08 00:33:00,40.0,-99.9,30.14,NW,326,8.0,16.0,-999,-99.99,,,-99.99,,2013-03-08 05:33:00,
2013-03-08 00:43:00,-999.0,-99.9,30.15,NW,319,11.0,18.0,-999,-99.99,,,-99.99,,2013-03-08 05:43:00,
2013-03-08 00:52:00,40.0,-99.9,30.14,North,-999,-999.0,-999.0,-999,-99.99,,,-99.99,,2013-03-08 05:52:00,
2013-03-08 01:02:00,40.0,-99.9,30.15,NNW,329,11.0,18.0,-999,-99.99,,,-99.99,,2013-03-08 06:02:00,
2013-03-08 01:11:00,40.0,-99.9,30.15,North,-999,-999.0,-999.0,-999,-99.99,,,-99.99,,2013-03-08 06:11:00,
2013-03-08 01:22:00,40.0,-99.9,30.15,North,-999,-999.0,-999.0,-999,-99.99,,,-99.99,,2013-03-08 06:22:00,
2013-03-08 01:32:00,40.0,-99.9,30.15,NNW,332,7.0,16.0,-999,-99.99,,,-99.99,,2013-03-08 06:32:00,
2013-03-08 01:42:00,40.0,-99.9,30.15,NW,325,10.0,17.0,-999,-99.99,,,-99.99,,2013-03-08 06:42:00,
2013-03-08 01:52:00,-999.0,-99.9,30.15,NNW,327,9.0,14.0,-999,-99.99,,,-99.99,,2013-03-08 06:52:00,
2013-03-08 02:01:00,39.0,-99.9,30.15,NW,326,9.0,18.0,-999,-99.99,,,-99.99,,2013-03-08 07:01:00,
2013-03-08 02:11:00,-999.0,-99.9,30.15,NW,324,10.0,18.0,-999,-99.99,,,-99.99,,2013-03-08 07:11:00,
2013-03-08 02:22:00,39.0,-99.9,30.15,North,-999,-999.0,-999.0,-999,-99.99,,,-99.99,,2013-03-08 07:22:00,
2013-03-08 02:32:00,39.0,-99.9,30.15,NW,319,11.0,17.0,-999,-99.99,,,-99.99,,2013-03-08 07:32:00,
2013-03-08 02:42:00,39.0,-99.9,30.14,NW,318,11.0,17.0,-999,-99.99,,,-99.99,,2013-03-08 07:42:00,
2013-03-08 02:52:00,-999.0,-99.9,30.14,NW,313,11.0,17.0,-999,-99.99,,,-99.99,,2013-03-08 07:52:00,
2013-03-08 03:02:00,39.0,-99.9,30.14,NW,317,11.0,16.0,-999,-99.99,,,-99.99,,2013-03-08 08:02:00,
2013-03-08 03:11:00,39.0,-99.9,30.14,North,-999,-999.0,-999.0,-999,-99.99,,,-99.99,,2013-03-08 08:11:00,
2013-03-08 03:22:00,-999.0,-99.9,30.13,NW,321,9.0,13.0,-999,-99.99,,,-99.99,,2013-03-08 08:22:00,
2013-03-08 03:32:00,39.0,-99.9,30.14,NW,321,9.0,13.0,-999,-99.99,,,-99.99,,2013-03-08 08:32:00,
2013-03-08 03:42:00,39.0,-99.9,30.13,North,-999,-999.0,-999.0,-999,-99.99,,,-99.99,,2013-03-08 08:42:00,
2013-03-08 03:52:00,-999.0,-99.9,30.13,NW,325,9.0,13.0,-999,-99.99,,,-99.99,,2013-03-08 08:52:00,
2013-03-08 04:03:00,39.0,-99.9,30.13,NNW,330,8.0,17.0,-999,-99.99,,,-99.99,,2013-03-08 09:03:00,
2013-03-08 04:11:00,39.0,-99.9,30.13,NW,320,10.0,16.0,-999,-99.99,,,-99.99,,2013-03-08 09:11:00,
2013-03-08 04:22:00,-999.0,-99.9,30.13,NW,309,10.0,12.0,-999,-99.99,,,-99.99,,2013-03-08 09:22:00,
2013-03-08 04:32:00,38.0,-99.9,30.13,NW,311,9.0,11.0,-999,-99.99,,,-99.99,,2013-03-08 09:32:00,
2013-03-08 04:42:00,38.0,-99.9,30.13,North,-999,-999.0,-999.0,-999,-99.99,,,-99.99,,2013-03-08 09:42:00,
2013-03-08 04:52:00,38.0,-99.9,30.14,North,-999,-999.0,-999.0,-999,-99.99,,,-99.99,,2013-03-08 09:52:00,
2013-03-08 05:01:00,38.0,-99.9,30.14,NW,320,9.0,13.0,-999,-99.99,,,-99.99,,2013-03-08 10:01:00,
2013-03-08 05:11:00,38.0,-99.9,30.14,NW,320,9.0,13.0,-999,-99.99,,,-99.99,,2013-03-08 10:11:00,
2013-03-08 05:21:00,-999.0,-99.9,30.14,NW,321,9.0,19.0,-999,-99.99,,,-99.99,,2013-03-08 10:21:00,
2013-03-08 05:32:00,39.0,-99.9,30.14,NNW,327,12.0,18.0,-999,-99.99,,,-99.99,,2013-03-08 10:32:00,
2013-03-08 05:42:00,38.0,-99.9,30.14,NW,317,8.0,13.0,-999,-99.99,,,-99.99,,2013-03-08 10:42:00,
2013-03-08 05:52:00,-999.0,-99.9,30.15,NW,322,11.0,15.0,-999,-99.99,,,-99.99,,2013-03-08 10:52:00,
2013-03-08 06:01:00,38.0,-99.9,30.15,NW,317,12.0,17.0,-999,-99.99,,,-99.99,,2013-03-08 11:01:00,
2013-03-08 06:11:00,38.0,-99.9,30.15,NW,317,9.0,14.0,-999,-99.99,,,-99.99,,2013-03-08 11:11:00,
2013-03-08 06:22:00,-999.0,-99.9,30.14,NW,316,10.0,17.0,-999,-99.99,,,-99.99,,2013-03-08 11:22:00,
2013-03-08 06:32:00,38.0,-99.9,30.14,NNW,327,11.0,15.0,-999,-99.99,,,-99.99,,2013-03-08 11:32:00,
2013-03-08 06:42:00,39.0,-99.9,30.14,North,-999,-999.0,-999.0,-999,-99.99,,,-99.99,,2013-03-08 11:42:00,
2013-03-08 06:52:00,-999.0,-99.9,30.15,NW,323,9.0,16.0,-999,-99.99,,,-99.99,,2013-03-08 11:52:00,
2013-03-08 07:02:00,39.0,-99.9,30.15,NW,319,11.0,16.0,-999,-99.99,,,-99.99,,2013-03-08 12:02:00,
2013-03-08 07:11:00,39.0,-99.9,30.15,North,-999,-999.0,-999.0,-999,-99.99,,,-99.99,,2013-03-08 12:11:00,
2013-03-08 07:23:00,-999.0,-99.9,30.15,NNW,339,14.0,25.0,-999,-99.99,,,-99.99,,2013-03-08 12:23:00,
2013-03-08 07:32:00,39.0,-99.9,30.16,NNW,347,15.0,25.0,-999,-99.99,,,-99.99,,2013-03-08 12:32:00,
2013-03-08 07:43:00,39.0,-99.9,30.16,North,358,10.0,24.0,-999,-99.99,,,-99.99,,2013-03-08 12:43:00,
2013-03-08 07:53:00,39.0,-99.9,30.16,North,-999,-999.0,-999.0,-999,-99.99,,,-99.99,,2013-03-08 12:53:00,
2013-03-08 08:02:00,39.0,-99.9,30.16,North,353,15.0,19.0,-999,-99.99,,,-99.99,,2013-03-08 13:02:00,
2013-03-08 08:12:00,-999.0,-99.9,30.16,North,356,15.0,20.0,-999,-99.99,,,-99.99,,2013-03-08 13:12:00,
2013-03-08 08:22:00,-999.0,-99.9,30.16,NNW,340,9.0,22.0,-999,-99.99,,,-99.99,,2013-03-08 13:22:00,
2013-03-08 08:33:00,40.0,-99.9,30.17,NNW,342,9.0,21.0,-999,-99.99,,,-99.99,,2013-03-08 13:33:00,
2013-03-08 08:42:00,-999.0,-99.9,30.17,North,0,14.0,21.0,-999,-99.99,,,-99.99,,2013-03-08 13:42:00,
2013-03-08 08:52:00,-999.0,-99.9,30.17,North,350,16.0,31.0,-999,-99.99,,,-99.99,,2013-03-08 13:52:00,
2013-03-08 09:03:00,40.0,-99.9,30.17,North,350,16.0,27.0,-999,-99.99,,,-99.99,,2013-03-08 14:03:00,
2013-03-08 09:12:00,40.0,-99.9,30.17,North,357,12.0,22.0,-999,-99.99,,,-99.99,,2013-03-08 14:12:00,
2013-03-08 09:22:00,39.0,-99.9,30.17,North,-999,-999.0,-999.0,-999,-99.99,,,-99.99,,2013-03-08 14:22:00,
2013-03-08 09:33:00,39.0,-99.9,30.17,North,-999,-999.0,-999.0,-999,-99.99,,,-99.99,,2013-03-08 14:33:00,
2013-03-08 09:42:00,39.0,-99.9,30.17,North,-999,-999.0,-999.0,-999,-99.99,,,-99.99,,2013-03-08 14:42:00,
2013-03-08 09:53:00,39.0,-99.9,30.17,North,-999,-999.0,-999.0,-999,-99.99,,,-99.99,,2013-03-08 14:53:00,
2013-03-08 10:03:00,41.0,-99.9,30.17,North,353,19.0,23.0,-999,-99.99,,,-99.99,,2013-03-08 15:03:00,
2013-03-08 10:12:00,41.0,-99.9,30.17,North,-999,-999.0,-999.0,-999,-99.99,,,-99.99,,2013-03-08 15:12:00,
2013-03-08 10:22:00,41.0,-99.9,30.17,North,-999,-999.0,-999.0,-999,-99.99,,,-99.99,,2013-03-08 15:22:00,
2013-03-08 10:32:00,41.0,-99.9,30.17,NNW,341,16.0,25.0,-999,-99.99,,,-99.99,,2013-03-08 15:32:00,
2013-03-08 10:43:00,41.0,-99.9,30.18,NNW,340,13.0,23.0,-999,-99.99,,,-99.99,,2013-03-08 15:43:00,
2013-03-08 10:53:00,-999.0,-99.9,30.17,NW,321,21.0,30.0,-999,-99.99,,,-99.99,,2013-03-08 15:53:00,
2013-03-08 11:02:00,40.0,-99.9,30.17,North,-999,-999.0,-999.0,-999,-99.99,,,-99.99,,2013-03-08 16:02:00,
2013-03-08 11:12:00,42.0,-99.9,30.17,NNW,334,17.0,21.0,-999,-99.99,,,-99.99,,2013-03-08 16:12:00,
2013-03-08 11:22:00,-999.0,-99.9,30.17,NNW,334,17.0,23.0,-999,-99.99,,,-99.99,,2013-03-08 16:22:00,
2013-03-08 11:32:00,43.0,-99.9,30.17,North,-999,-999.0,-999.0,-999,-99.99,,,-99.99,,2013-03-08 16:32:00,
2013-03-08 11:42:00,43.0,-99.9,30.17,NNW,331,13.0,25.0,-999,-99.99,,,-99.99,,2013-03-08 16:42:00,
2013-03-08 11:52:00,-999.0,-99.9,30.17,NNW,330,14.0,24.0,-999,-99.99,,,-99.99,,2013-03-08 16:52:00,
2013-03-08 12:03:00,44.0,-99.9,30.16,NNW,338,12.0,28.0,-999,-99.99,,,-99.99,,2013-03-08 17:03:00,
2013-03-08 12:12:00,-999.0,-99.9,30.16,NNW,338,12.0,28.0,-999,-99.99,,,-99.99,,2013-03-08 17:12:00,
2013-03-08 12:22:00,-999.0,-99.9,30.16,North,356,19.0,29.0,-999,-99.99,,,-99.99,,2013-03-08 17:22:00,
2013-03-08 12:32:00,44.0,-99.9,30.16,North,-999,-999.0,-999.0,-999,-99.99,,,-99.99,,2013-03-08 17:32:00,
2013-03-08 12:42:00,44.0,-99.9,30.16,North,-999,-999.0,-999.0,-999,-99.99,,,-99.99,,2013-03-08 17:42:00,
2013-03-08 12:52:00,44.0,-99.9,30.16,North,-999,-999.0,-999.0,-999,-99.99,,,-99.99,,2013-03-08 17:52:00,
2013-03-08 13:02:00,44.0,-99.9,30.15,NNW,331,18.0,27.0,-999,-99.99,,,-99.99,,2013-03-08 18:02:00,
2013-03-08 13:12:00,-999.0,-99.9,30.15,NNW,333,17.0,24.0,-999,-99.99,,,-99.99,,2013-03-08 18:12:00,
2013-03-08 13:22:00,45.0,-99.9,30.14,North,-999,-999.0,-999.0,-999,-99.99,,,-99.99,,2013-03-08 18:22:00,
2013-03-08 13:32:00,46.0,-99.9,30.14,NNW,341,12.0,24.0,-999,-99.99,,,-99.99,,2013-03-08 18:32:00,
2013-03-08 13:42:00,-999.0,-99.9,30.14,NNW,336,15.0,22.0,-999,-99.99,,,-99.99,,2013-03-08 18:42:00,
2013-03-08 13:52:00,-999.0,-99.9,30.13,NNW,330,15.0,23.0,-999,-99.99,,,-99.99,,2013-03-08 18:52:00,
2013-03-08 14:02:00,47.0,-99.9,30.13,North,351,15.0,25.0,-999,-99.99,,,-99.99,,2013-03-08 19:02:00,
2013-03-08 14:11:00,47.0,-99.9,30.13,North,350,17.0,28.0,-999,-99.99,,,-99.99,,2013-03-08 19:11:00,
2013-03-08 14:22:00,-999.0,-99.9,30.13,North,352,13.0,27.0,-999,-99.99,,,-99.99,,2013-03-08 19:22:00,
2013-03-08 14:32:00,47.0,-99.9,30.13,NNW,347,12.0,24.0,-999,-99.99,,,-99.99,,2013-03-08 19:32:00,
2013-03-08 14:42:00,-999.0,-99.9,30.12,NNW,346,14.0,29.0,-999,-99.99,,,-99.99,,2013-03-08 19:42:00,
2013-03-08 14:52:00,-999.0,-99.9,30.13,North,355,13.0,18.0,-999,-99.99,,,-99.99,,2013-03-08 19:52:00,
2013-03-08 15:02:00,49.0,-99.9,30.13,NNW,339,11.0,21.0,-999,-99.99,,,-99.99,,2013-03-08 20:02:00,
2013-03-08 15:11:00,-999.0,-99.9,30.13,NW,324,17.0,22.0,-999,-99.99,,,-99.99,,2013-03-08 20:11:00,
2013-03-08 15:22:00,-999.0,-99.9,30.13,North,359,17.0,24.0,-999,-99.99,,,-99.99,,2013-03-08 20:22:00,
2013-03-08 15:32:00,49.0,-99.9,30.14,NNW,348,12.0,21.0,-999,-99.99,,,-99.99,,2013-03-08 20:32:00,
2013-03-08 15:42:00,48.0,-99.9,30.14,NNW,339,10.0,24.0,-999,-99.99,,,-99.99,,2013-03-08 20:42:00,
2013-03-08 15:53:00,49.0,-99.9,30.14,North,-999,-999.0,-999.0,-999,-99.99,,,-99.99,,2013-03-08 20:53:00,
2013-03-08 16:02:00,48.0,-99.9,30.14,NNW,338,14.0,28.0,-999,-99.99,,,-99.99,,2013-03-08 21:02:00,
2013-03-08 16:12:00,-999.0,-99.9,30.14,NNW,331,14.0,19.0,-999,-99.99,,,-99.99,,2013-03-08 21:12:00,
2013-03-08 16:22:00,49.0,-99.9,30.15,North,-999,-999.0,-999.0,-999,-99.99,,,-99.99,,2013-03-08 21:22:00,
2013-03-08 16:33:00,50.0,-99.9,30.15,North,354,12.0,21.0,-999,-99.99,,,-99.99,,2013-03-08 21:33:00,
2013-03-08 16:42:00,50.0,-99.9,30.15,North,-999,-999.0,-999.0,-999,-99.99,,,-99.99,,2013-03-08 21:42:00,
2013-03-08 16:52:00,49.0,-99.9,30.15,North,-999,-999.0,-999.0,-999,-99.99,,,-99.99,,2013-03-08 21:52:00,
2013-03-08 17:02:00,49.0,-99.9,30.15,NNW,348,13.0,29.0,-999,-99.99,,,-99.99,,2013-03-08 22:02:00,
2013-03-08 17:12:00,49.0,-99.9,30.16,NNW,347,15.0,21.0,-999,-99.99,,,-99.99,,2013-03-08 22:12:00,
2013-03-08 17:22:00,-999.0,-99.9,30.16,North,349,15.0,22.0,-999,-99.99,,,-99.99,,2013-03-08 22:22:00,
2013-03-08 17:32:00,49.0,-99.9,30.17,North,358,13.0,23.0,-999,-99.99,,,-99.99,,2013-03-08 22:32:00,
2013-03-08 17:42:00,49.0,-99.9,30.17,North,-999,-999.0,-999.0,-999,-99.99,,,-99.99,,2013-03-08 22:42:00,
2013-03-08 17:53:00,49.0,-99.9,30.18,North,-999,-999.0,-999.0,-999,-99.99,,,-99.99,,2013-03-08 22:53:00,
2013-03-08 18:02:00,49.0,-99.9,30.19,NNW,347,19.0,30.0,-999,-99.99,,,-99.99,,2013-03-08 23:02:00,
2013-03-08 18:12:00,-999.0,-99.9,30.19,North,356,13.0,25.0,-999,-99.99,,,-99.99,,2013-03-08 23:12:00,
2013-03-08 18:22:00,-999.0,-99.9,30.19,NNW,347,15.0,21.0,-999,-99.99,,,-99.99,,2013-03-08 23:22:00,
2013-03-08 18:32:00,49.0,-99.9,30.20,North,358,15.0,26.0,-999,-99.99,,,-99.99,,2013-03-08 23:32:00,
2013-03-08 18:42:00,48.0,-99.9,30.20,North,356,13.0,27.0,-999,-99.99,,,-99.99,,2013-03-08 23:42:00,
2013-03-08 18:53:00,48.0,-99.9,30.20,North,-999,-999.0,-999.0,-999,-99.99,,,-99.99,,2013-03-08 23:53:00,
2013-03-08 19:02:00,48.0,-99.9,30.21,North,349,12.0,20.0,-999,-99.99,,,-99.99,,2013-03-09 00:02:00,
2013-03-08 19:12:00,-999.0,-99.9,30.21,North,355,12.0,22.0,-999,-99.99,,,-99.99,,2013-03-09 00:12:00,
2013-03-08 19:22:00,48.0,-99.9,30.21,North,-999,-999.0,-999.0,-999,-99.99,,,-99.99,,2013-03-09 00:22:00,
2013-03-08 19:32:00,48.0,-99.9,30.22,NNW,342,13.0,21.0,-999,-99.99,,,-99.99,,2013-03-09 00:32:00,
2013-03-08 19:42:00,48.0,-99.9,30.22,North,-999,-999.0,-999.0,-999,-99.99,,,-99.99,,2013-03-09 00:42:00,
2013-03-08 19:52:00,-999.0,-99.9,30.22,North,1,11.0,22.0,-999,-99.99,,,-99.99,,2013-03-09 00:52:00,
2013-03-08 20:02:00,48.0,-99.9,30.23,North,350,14.0,21.0,-999,-99.99,,,-99.99,,2013-03-09 01:02:00,
2013-03-08 20:12:00,48.0,-99.9,30.23,NNW,339,14.0,26.0,-999,-99.99,,,-99.99,,2013-03-09 01:12:00,
2013-03-08 20:22:00,-999.0,-99.9,30.23,North,355,12.0,21.0,-999,-99.99,,,-99.99,,2013-03-09 01:22:00,
2013-03-08 20:32:00,48.0,-99.9,30.23,North,356,12.0,21.0,-999,-99.99,,,-99.99,,2013-03-09 01:32:00,
2013-03-08 20:42:00,-999.0,-99.9,30.24,NNW,340,13.0,21.0,-999,-99.99,,,-99.99,,2013-03-09 01:42:00,
2013-03-08 20:52:00,48.0,-99.9,30.24,North,-999,-999.0,-999.0,-999,-99.99,,,-99.99,,2013-03-09 01:52:00,
2013-03-08 21:01:00,48.0,-99.9,30.24,NNW,348,13.0,19.0,-999,-99.99,,,-99.99,,2013-03-09 02:01:00,
2013-03-08 21:11:00,48.0,-99.9,30.24,North,-999,-999.0,-999.0,-999,-99.99,,,-99.99,,2013-03-09 02:11:00,
2013-03-08 21:21:00,48.0,-99.9,30.24,North,-999,-999.0,-999.0,-999,-99.99,,,-99.99,,2013-03-09 02:21:00,
2013-03-08 21:31:00,48.0,-99.9,30.24,North,351,11.0,20.0,-999,-99.99,,,-99.99,,2013-03-09 02:31:00,
2013-03-08 21:41:00,48.0,-99.9,30.24,North,353,9.0,22.0,-999,-99.99,,,-99.99,,2013-03-09 02:41:00,
2013-03-08 21:52:00,-999.0,-99.9,30.24,NNW,346,8.0,17.0,-999,-99.99,,,-99.99,,2013-03-09 02:52:00,
2013-03-08 22:01:00,47.0,-99.9,30.24,NNW,336,11.0,19.0,-999,-99.99,,,-99.99,,2013-03-09 03:01:00,
2013-03-08 22:11:00,47.0,-99.9,30.24,North,-999,-999.0,-999.0,-999,-99.99,,,-99.99,,2013-03-09 03:11:00,
2013-03-08 22:22:00,47.0,-99.9,30.25,North,-999,-999.0,-999.0,-999,-99.99,,,-99.99,,2013-03-09 03:22:00,
2013-03-08 22:32:00,47.0,-99.9,30.25,North,-999,-999.0,-999.0,-999,-99.99,,,-99.99,,2013-03-09 03:32:00,
2013-03-08 22:42:00,46.0,-99.9,30.25,NNW,329,10.0,12.0,-999,-99.99,,,-99.99,,2013-03-09 03:42:00,
2013-03-08 22:52:00,46.0,-99.9,30.25,North,-999,-999.0,-999.0,-999,-99.99,,,-99.99,,2013-03-09 03:52:00,
2013-03-08 23:01:00,46.0,-99.9,30.25,North,356,6.0,11.0,-999,-99.99,,,-99.99,,2013-03-09 04:01:00,
2013-03-08 23:11:00,46.0,-99.9,30.25,North,352,8.0,15.0,-999,-99.99,,,-99.99,,2013-03-09 04:11:00,
2013-03-08 23:22:00,-999.0,-99.9,30.25,North,350,5.0,14.0,-999,-99.99,,,-99.99,,2013-03-09 04:22:00,
2013-03-08 23:32:00,46.0,-99.9,30.26,North,352,7.0,12.0,-999,-99.99,,,-99.99,,2013-03-09 04:32:00,
2013-03-08 23:42:00,46.0,-99.9,30.26,North,-999,-999.0,-999.0,-999,-99.99,,,-99.99,,2013-03-09 04:42:00,
2013-03-08 23:52:00,-999.0,-99.9,30.26,NNW,345,9.0,15.0,-999,-99.99,,,-99.99,,2013-03-09 04:52:00,